sensor_id;sensor_type;location;lat;lon;timestamp;P1;durP1;ratioP1;P2;durP2;ratioP2
39188;SDS011;24915;50.858;4.376;2023-05-10T00:00:33;20.23;;;10.80;;
39188;SDS011;24915;50.858;4.376;2023-05-10T00:02:59;20.75;;;10.70;;
39188;SDS011;24915;50.858;4.376;2023-05-10T00:05:25;18.45;;;9.98;;
39188;SDS011;24915;50.858;4.376;2023-05-10T00:07:51;15.70;;;9.63;;
39188;SDS011;24915;50.858;4.376;2023-05-10T00:10:17;20.27;;;10.82;;
39188;SDS011;24915;50.858;4.376;2023-05-10T00:12:44;21.63;;;9.77;;
39188;SDS011;24915;50.858;4.376;2023-05-10T00:15:10;17.50;;;10.23;;
39188;SDS011;24915;50.858;4.376;2023-05-10T00:17:36;18.80;;;10.43;;
39188;SDS011;24915;50.858;4.376;2023-05-10T00:20:02;17.63;;;10.25;;
39188;SDS011;24915;50.858;4.376;2023-05-10T00:22:30;18.38;;;10.45;;
39188;SDS011;24915;50.858;4.376;2023-05-10T00:24:56;22.63;;;10.35;;
39188;SDS011;24915;50.858;4.376;2023-05-10T00:27:22;24.88;;;12.00;;
39188;SDS011;24915;50.858;4.376;2023-05-10T00:29:48;26.13;;;12.25;;
39188;SDS011;24915;50.858;4.376;2023-05-10T00:32:15;22.23;;;10.65;;
39188;SDS011;24915;50.858;4.376;2023-05-10T00:34:41;21.95;;;10.82;;
39188;SDS011;24915;50.858;4.376;2023-05-10T00:37:08;20.60;;;10.80;;
39188;SDS011;24915;50.858;4.376;2023-05-10T00:39:34;21.05;;;11.13;;
39188;SDS011;24915;50.858;4.376;2023-05-10T00:42:00;20.83;;;12.25;;
39188;SDS011;24915;50.858;4.376;2023-05-10T00:44:26;20.98;;;11.23;;
39188;SDS011;24915;50.858;4.376;2023-05-10T00:46:52;21.10;;;12.52;;
39188;SDS011;24915;50.858;4.376;2023-05-10T00:49:18;22.95;;;12.23;;
39188;SDS011;24915;50.858;4.376;2023-05-10T00:51:45;21.55;;;11.90;;
39188;SDS011;24915;50.858;4.376;2023-05-10T00:54:12;23.05;;;12.07;;
39188;SDS011;24915;50.858;4.376;2023-05-10T00:56:40;27.15;;;12.88;;
39188;SDS011;24915;50.858;4.376;2023-05-10T00:59:07;20.20;;;12.13;;
39188;SDS011;24915;50.858;4.376;2023-05-10T01:01:34;21.73;;;12.23;;
39188;SDS011;24915;50.858;4.376;2023-05-10T01:04:01;25.70;;;12.90;;
39188;SDS011;24915;50.858;4.376;2023-05-10T01:06:28;26.80;;;13.85;;
39188;SDS011;24915;50.858;4.376;2023-05-10T01:08:55;24.85;;;12.88;;
39188;SDS011;24915;50.858;4.376;2023-05-10T01:11:21;25.90;;;13.10;;
39188;SDS011;24915;50.858;4.376;2023-05-10T01:13:50;19.70;;;12.60;;
39188;SDS011;24915;50.858;4.376;2023-05-10T01:16:18;21.48;;;13.15;;
39188;SDS011;24915;50.858;4.376;2023-05-10T01:18:44;29.15;;;12.93;;
39188;SDS011;24915;50.858;4.376;2023-05-10T01:27:07;25.48;;;14.45;;
39188;SDS011;24915;50.858;4.376;2023-05-10T01:37:20;26.42;;;14.15;;
39188;SDS011;24915;50.858;4.376;2023-05-10T01:39:55;27.10;;;14.82;;
39188;SDS011;24915;50.858;4.376;2023-05-10T01:42:25;22.50;;;14.63;;
39188;SDS011;24915;50.858;4.376;2023-05-10T01:45:00;28.38;;;15.32;;
39188;SDS011;24915;50.858;4.376;2023-05-10T01:49:54;27.67;;;15.38;;
39188;SDS011;24915;50.858;4.376;2023-05-10T01:52:30;23.48;;;14.60;;
39188;SDS011;24915;50.858;4.376;2023-05-10T01:55:01;25.27;;;14.85;;
39188;SDS011;24915;50.858;4.376;2023-05-10T01:57:31;30.27;;;15.52;;
39188;SDS011;24915;50.858;4.376;2023-05-10T01:59:59;25.52;;;15.43;;
39188;SDS011;24915;50.858;4.376;2023-05-10T02:02:27;25.63;;;14.23;;
39188;SDS011;24915;50.858;4.376;2023-05-10T02:04:54;29.33;;;15.05;;
39188;SDS011;24915;50.858;4.376;2023-05-10T02:07:20;25.88;;;15.38;;
39188;SDS011;24915;50.858;4.376;2023-05-10T02:09:47;30.30;;;15.32;;
39188;SDS011;24915;50.858;4.376;2023-05-10T02:12:14;28.63;;;15.77;;
39188;SDS011;24915;50.858;4.376;2023-05-10T02:14:41;24.38;;;14.77;;
39188;SDS011;24915;50.858;4.376;2023-05-10T02:17:08;24.55;;;14.88;;
39188;SDS011;24915;50.858;4.376;2023-05-10T02:19:35;33.83;;;15.80;;
39188;SDS011;24915;50.858;4.376;2023-05-10T02:22:02;26.77;;;14.73;;
39188;SDS011;24915;50.858;4.376;2023-05-10T02:24:29;25.70;;;15.15;;
39188;SDS011;24915;50.858;4.376;2023-05-10T02:26:55;27.45;;;15.38;;
39188;SDS011;24915;50.858;4.376;2023-05-10T02:29:22;30.92;;;16.20;;
39188;SDS011;24915;50.858;4.376;2023-05-10T02:31:49;28.45;;;14.32;;
39188;SDS011;24915;50.858;4.376;2023-05-10T02:34:17;26.02;;;15.48;;
39188;SDS011;24915;50.858;4.376;2023-05-10T02:36:43;24.58;;;14.73;;
39188;SDS011;24915;50.858;4.376;2023-05-10T02:39:09;30.63;;;15.05;;
39188;SDS011;24915;50.858;4.376;2023-05-10T02:41:38;27.77;;;16.52;;
39188;SDS011;24915;50.858;4.376;2023-05-10T02:44:06;26.08;;;14.00;;
39188;SDS011;24915;50.858;4.376;2023-05-10T02:46:33;26.83;;;15.68;;
39188;SDS011;24915;50.858;4.376;2023-05-10T02:49:00;26.40;;;14.10;;
39188;SDS011;24915;50.858;4.376;2023-05-10T02:51:27;26.92;;;14.80;;
39188;SDS011;24915;50.858;4.376;2023-05-10T02:53:54;25.08;;;14.18;;
39188;SDS011;24915;50.858;4.376;2023-05-10T02:56:25;30.85;;;15.25;;
39188;SDS011;24915;50.858;4.376;2023-05-10T02:58:51;24.85;;;14.38;;
39188;SDS011;24915;50.858;4.376;2023-05-10T03:01:18;25.90;;;14.63;;
39188;SDS011;24915;50.858;4.376;2023-05-10T03:03:44;29.58;;;14.80;;
39188;SDS011;24915;50.858;4.376;2023-05-10T03:06:10;26.02;;;14.82;;
39188;SDS011;24915;50.858;4.376;2023-05-10T03:08:36;24.67;;;13.85;;
39188;SDS011;24915;50.858;4.376;2023-05-10T03:11:16;21.40;;;14.35;;
39188;SDS011;24915;50.858;4.376;2023-05-10T03:16:36;23.30;;;14.38;;
39188;SDS011;24915;50.858;4.376;2023-05-10T03:19:09;24.05;;;13.77;;
39188;SDS011;24915;50.858;4.376;2023-05-10T03:21:38;24.67;;;13.02;;
39188;SDS011;24915;50.858;4.376;2023-05-10T03:24:08;26.42;;;13.40;;
39188;SDS011;24915;50.858;4.376;2023-05-10T03:26:37;21.20;;;13.23;;
39188;SDS011;24915;50.858;4.376;2023-05-10T03:29:04;21.70;;;13.75;;
39188;SDS011;24915;50.858;4.376;2023-05-10T03:31:30;22.90;;;14.20;;
39188;SDS011;24915;50.858;4.376;2023-05-10T03:33:56;24.15;;;14.30;;
39188;SDS011;24915;50.858;4.376;2023-05-10T03:36:23;24.83;;;13.88;;
39188;SDS011;24915;50.858;4.376;2023-05-10T03:38:49;23.27;;;14.23;;
39188;SDS011;24915;50.858;4.376;2023-05-10T03:41:15;25.85;;;13.77;;
39188;SDS011;24915;50.858;4.376;2023-05-10T03:43:41;25.77;;;14.63;;
39188;SDS011;24915;50.858;4.376;2023-05-10T03:46:07;28.65;;;16.17;;
39188;SDS011;24915;50.858;4.376;2023-05-10T03:48:33;31.10;;;15.82;;
39188;SDS011;24915;50.858;4.376;2023-05-10T03:51:00;26.27;;;16.20;;
39188;SDS011;24915;50.858;4.376;2023-05-10T03:53:26;25.73;;;15.00;;
39188;SDS011;24915;50.858;4.376;2023-05-10T03:55:52;28.77;;;16.50;;
39188;SDS011;24915;50.858;4.376;2023-05-10T03:58:18;35.95;;;18.10;;
39188;SDS011;24915;50.858;4.376;2023-05-10T04:00:44;32.97;;;17.90;;
39188;SDS011;24915;50.858;4.376;2023-05-10T04:03:11;32.17;;;17.35;;
39188;SDS011;24915;50.858;4.376;2023-05-10T04:05:38;36.13;;;18.67;;
39188;SDS011;24915;50.858;4.376;2023-05-10T04:08:04;31.75;;;18.17;;
39188;SDS011;24915;50.858;4.376;2023-05-10T04:10:30;31.73;;;18.00;;
39188;SDS011;24915;50.858;4.376;2023-05-10T04:12:56;30.80;;;18.48;;
39188;SDS011;24915;50.858;4.376;2023-05-10T04:15:23;35.45;;;18.67;;
39188;SDS011;24915;50.858;4.376;2023-05-10T04:17:49;33.78;;;19.48;;
39188;SDS011;24915;50.858;4.376;2023-05-10T04:20:15;33.33;;;19.95;;
39188;SDS011;24915;50.858;4.376;2023-05-10T04:22:41;43.58;;;21.00;;
39188;SDS011;24915;50.858;4.376;2023-05-10T04:25:08;35.50;;;20.67;;
39188;SDS011;24915;50.858;4.376;2023-05-10T04:27:34;34.03;;;19.55;;
39188;SDS011;24915;50.858;4.376;2023-05-10T04:30:00;34.35;;;19.95;;
39188;SDS011;24915;50.858;4.376;2023-05-10T04:32:26;40.45;;;20.67;;
39188;SDS011;24915;50.858;4.376;2023-05-10T04:34:53;38.28;;;20.48;;
39188;SDS011;24915;50.858;4.376;2023-05-10T04:37:19;34.85;;;20.80;;
39188;SDS011;24915;50.858;4.376;2023-05-10T04:39:46;36.92;;;21.02;;
39188;SDS011;24915;50.858;4.376;2023-05-10T04:42:12;39.28;;;21.85;;
39188;SDS011;24915;50.858;4.376;2023-05-10T04:44:41;36.67;;;21.90;;
39188;SDS011;24915;50.858;4.376;2023-05-10T04:47:07;35.03;;;21.27;;
39188;SDS011;24915;50.858;4.376;2023-05-10T04:49:33;42.28;;;22.70;;
39188;SDS011;24915;50.858;4.376;2023-05-10T04:51:59;38.33;;;22.80;;
39188;SDS011;24915;50.858;4.376;2023-05-10T04:54:25;40.80;;;24.13;;
39188;SDS011;24915;50.858;4.376;2023-05-10T04:56:52;43.85;;;23.98;;
39188;SDS011;24915;50.858;4.376;2023-05-10T04:59:18;39.08;;;23.05;;
39188;SDS011;24915;50.858;4.376;2023-05-10T05:01:44;40.83;;;22.70;;
39188;SDS011;24915;50.858;4.376;2023-05-10T05:04:11;37.90;;;23.65;;
39188;SDS011;24915;50.858;4.376;2023-05-10T05:06:37;40.92;;;23.45;;
39188;SDS011;24915;50.858;4.376;2023-05-10T05:09:03;40.55;;;23.08;;
39188;SDS011;24915;50.858;4.376;2023-05-10T05:11:29;39.17;;;23.08;;
39188;SDS011;24915;50.858;4.376;2023-05-10T05:13:55;40.60;;;24.60;;
39188;SDS011;24915;50.858;4.376;2023-05-10T05:16:23;39.63;;;24.23;;
39188;SDS011;24915;50.858;4.376;2023-05-10T05:18:50;39.75;;;22.92;;
39188;SDS011;24915;50.858;4.376;2023-05-10T05:21:17;44.00;;;24.23;;
39188;SDS011;24915;50.858;4.376;2023-05-10T05:23:43;37.60;;;22.38;;
39188;SDS011;24915;50.858;4.376;2023-05-10T05:26:09;43.92;;;24.17;;
39188;SDS011;24915;50.858;4.376;2023-05-10T05:28:36;42.67;;;24.08;;
39188;SDS011;24915;50.858;4.376;2023-05-10T05:31:03;42.05;;;23.70;;
39188;SDS011;24915;50.858;4.376;2023-05-10T05:33:29;37.55;;;22.95;;
39188;SDS011;24915;50.858;4.376;2023-05-10T05:35:55;35.85;;;23.15;;
39188;SDS011;24915;50.858;4.376;2023-05-10T05:38:21;36.28;;;20.38;;
39188;SDS011;24915;50.858;4.376;2023-05-10T05:40:48;36.22;;;19.55;;
39188;SDS011;24915;50.858;4.376;2023-05-10T05:43:14;31.60;;;18.48;;
39188;SDS011;24915;50.858;4.376;2023-05-10T05:45:42;26.25;;;15.82;;
39188;SDS011;24915;50.858;4.376;2023-05-10T05:48:08;21.02;;;13.73;;
39188;SDS011;24915;50.858;4.376;2023-05-10T05:50:34;21.35;;;13.18;;
39188;SDS011;24915;50.858;4.376;2023-05-10T05:53:00;26.25;;;13.05;;
39188;SDS011;24915;50.858;4.376;2023-05-10T05:55:27;19.65;;;11.77;;
39188;SDS011;24915;50.858;4.376;2023-05-10T05:57:54;22.30;;;13.18;;
39188;SDS011;24915;50.858;4.376;2023-05-10T06:00:20;21.85;;;14.10;;
39188;SDS011;24915;50.858;4.376;2023-05-10T06:02:47;23.05;;;13.95;;
39188;SDS011;24915;50.858;4.376;2023-05-10T06:05:13;26.20;;;15.52;;
39188;SDS011;24915;50.858;4.376;2023-05-10T06:07:39;30.73;;;14.88;;
39188;SDS011;24915;50.858;4.376;2023-05-10T06:10:07;26.63;;;16.17;;
39188;SDS011;24915;50.858;4.376;2023-05-10T06:12:33;26.23;;;15.32;;
39188;SDS011;24915;50.858;4.376;2023-05-10T06:15:00;26.08;;;16.77;;
39188;SDS011;24915;50.858;4.376;2023-05-10T06:17:26;26.38;;;16.10;;
39188;SDS011;24915;50.858;4.376;2023-05-10T06:19:52;31.92;;;16.85;;
39188;SDS011;24915;50.858;4.376;2023-05-10T06:22:18;34.47;;;17.55;;
39188;SDS011;24915;50.858;4.376;2023-05-10T06:24:45;29.15;;;17.65;;
39188;SDS011;24915;50.858;4.376;2023-05-10T06:27:11;38.33;;;18.42;;
39188;SDS011;24915;50.858;4.376;2023-05-10T06:29:37;30.67;;;17.73;;
39188;SDS011;24915;50.858;4.376;2023-05-10T06:32:03;33.30;;;18.38;;
39188;SDS011;24915;50.858;4.376;2023-05-10T06:34:29;25.08;;;14.50;;
39188;SDS011;24915;50.858;4.376;2023-05-10T06:36:55;19.05;;;11.95;;
39188;SDS011;24915;50.858;4.376;2023-05-10T06:39:21;21.08;;;12.32;;
39188;SDS011;24915;50.858;4.376;2023-05-10T06:41:47;23.60;;;12.45;;
39188;SDS011;24915;50.858;4.376;2023-05-10T06:44:13;23.83;;;10.77;;
39188;SDS011;24915;50.858;4.376;2023-05-10T06:46:39;19.85;;;10.98;;
39188;SDS011;24915;50.858;4.376;2023-05-10T06:49:06;22.65;;;11.48;;
39188;SDS011;24915;50.858;4.376;2023-05-10T06:51:32;20.25;;;11.38;;
39188;SDS011;24915;50.858;4.376;2023-05-10T06:53:59;24.63;;;12.63;;
39188;SDS011;24915;50.858;4.376;2023-05-10T06:56:25;21.88;;;10.77;;
39188;SDS011;24915;50.858;4.376;2023-05-10T06:58:51;24.00;;;11.93;;
39188;SDS011;24915;50.858;4.376;2023-05-10T07:01:17;23.42;;;11.50;;
39188;SDS011;24915;50.858;4.376;2023-05-10T07:03:43;27.58;;;12.18;;
39188;SDS011;24915;50.858;4.376;2023-05-10T07:06:10;28.55;;;13.25;;
39188;SDS011;24915;50.858;4.376;2023-05-10T07:08:36;30.38;;;13.98;;
39188;SDS011;24915;50.858;4.376;2023-05-10T07:11:03;25.85;;;13.80;;
39188;SDS011;24915;50.858;4.376;2023-05-10T07:13:32;28.58;;;14.07;;
39188;SDS011;24915;50.858;4.376;2023-05-10T07:15:59;31.92;;;15.45;;
39188;SDS011;24915;50.858;4.376;2023-05-10T07:18:25;30.50;;;15.18;;
39188;SDS011;24915;50.858;4.376;2023-05-10T07:20:52;31.85;;;14.55;;
39188;SDS011;24915;50.858;4.376;2023-05-10T07:23:18;34.28;;;14.95;;
39188;SDS011;24915;50.858;4.376;2023-05-10T07:25:47;34.63;;;16.05;;
39188;SDS011;24915;50.858;4.376;2023-05-10T07:28:14;39.15;;;16.23;;
39188;SDS011;24915;50.858;4.376;2023-05-10T07:30:41;33.60;;;15.82;;
39188;SDS011;24915;50.858;4.376;2023-05-10T07:33:07;36.60;;;15.85;;
39188;SDS011;24915;50.858;4.376;2023-05-10T07:35:34;35.17;;;15.13;;
39188;SDS011;24915;50.858;4.376;2023-05-10T07:38:00;39.75;;;15.02;;
39188;SDS011;24915;50.858;4.376;2023-05-10T07:40:26;30.05;;;12.98;;
39188;SDS011;24915;50.858;4.376;2023-05-10T07:42:53;36.75;;;14.32;;
39188;SDS011;24915;50.858;4.376;2023-05-10T07:45:19;29.98;;;12.70;;
39188;SDS011;24915;50.858;4.376;2023-05-10T07:47:45;29.67;;;13.70;;
39188;SDS011;24915;50.858;4.376;2023-05-10T07:50:11;36.55;;;14.07;;
39188;SDS011;24915;50.858;4.376;2023-05-10T07:52:37;35.95;;;14.05;;
39188;SDS011;24915;50.858;4.376;2023-05-10T07:55:03;32.60;;;14.88;;
39188;SDS011;24915;50.858;4.376;2023-05-10T07:57:30;31.58;;;14.48;;
39188;SDS011;24915;50.858;4.376;2023-05-10T07:59:56;30.63;;;14.00;;
39188;SDS011;24915;50.858;4.376;2023-05-10T08:02:22;28.77;;;14.98;;
39188;SDS011;24915;50.858;4.376;2023-05-10T08:04:48;30.38;;;14.85;;
39188;SDS011;24915;50.858;4.376;2023-05-10T08:07:14;28.33;;;13.90;;
39188;SDS011;24915;50.858;4.376;2023-05-10T08:09:40;22.55;;;13.82;;
39188;SDS011;24915;50.858;4.376;2023-05-10T08:12:06;24.13;;;13.50;;
39188;SDS011;24915;50.858;4.376;2023-05-10T08:14:33;24.45;;;13.00;;
39188;SDS011;24915;50.858;4.376;2023-05-10T08:16:59;23.20;;;12.98;;
39188;SDS011;24915;50.858;4.376;2023-05-10T08:19:25;26.00;;;12.73;;
39188;SDS011;24915;50.858;4.376;2023-05-10T08:21:51;23.33;;;12.73;;
39188;SDS011;24915;50.858;4.376;2023-05-10T08:24:18;25.40;;;12.75;;
39188;SDS011;24915;50.858;4.376;2023-05-10T08:26:44;26.13;;;13.13;;
39188;SDS011;24915;50.858;4.376;2023-05-10T08:29:10;26.00;;;13.45;;
39188;SDS011;24915;50.858;4.376;2023-05-10T08:31:36;26.67;;;10.63;;
39188;SDS011;24915;50.858;4.376;2023-05-10T08:34:02;18.15;;;10.27;;
39188;SDS011;24915;50.858;4.376;2023-05-10T08:36:28;17.95;;;9.30;;
39188;SDS011;24915;50.858;4.376;2023-05-10T08:38:55;16.90;;;9.32;;
39188;SDS011;24915;50.858;4.376;2023-05-10T08:41:21;17.90;;;8.65;;
39188;SDS011;24915;50.858;4.376;2023-05-10T08:43:50;13.27;;;9.07;;
39188;SDS011;24915;50.858;4.376;2023-05-10T08:46:18;20.42;;;10.20;;
39188;SDS011;24915;50.858;4.376;2023-05-10T08:48:45;18.13;;;11.10;;
39188;SDS011;24915;50.858;4.376;2023-05-10T08:51:19;18.13;;;10.52;;
39188;SDS011;24915;50.858;4.376;2023-05-10T08:53:46;15.75;;;9.88;;
39188;SDS011;24915;50.858;4.376;2023-05-10T08:56:12;18.27;;;9.43;;
39188;SDS011;24915;50.858;4.376;2023-05-10T08:58:40;13.07;;;9.18;;
39188;SDS011;24915;50.858;4.376;2023-05-10T09:01:07;17.80;;;9.65;;
39188;SDS011;24915;50.858;4.376;2023-05-10T09:03:34;19.77;;;13.23;;
39188;SDS011;24915;50.858;4.376;2023-05-10T09:06:00;14.30;;;10.40;;
39188;SDS011;24915;50.858;4.376;2023-05-10T09:08:27;13.68;;;9.50;;
39188;SDS011;24915;50.858;4.376;2023-05-10T09:10:54;16.02;;;10.40;;
39188;SDS011;24915;50.858;4.376;2023-05-10T09:13:21;14.60;;;8.85;;
39188;SDS011;24915;50.858;4.376;2023-05-10T09:15:47;22.02;;;9.60;;
39188;SDS011;24915;50.858;4.376;2023-05-10T09:18:14;12.30;;;8.95;;
39188;SDS011;24915;50.858;4.376;2023-05-10T09:20:40;12.38;;;8.50;;
39188;SDS011;24915;50.858;4.376;2023-05-10T09:23:06;13.38;;;8.98;;
39188;SDS011;24915;50.858;4.376;2023-05-10T09:25:32;11.68;;;8.38;;
39188;SDS011;24915;50.858;4.376;2023-05-10T09:27:59;19.58;;;9.95;;
39188;SDS011;24915;50.858;4.376;2023-05-10T09:30:29;15.65;;;9.57;;
39188;SDS011;24915;50.858;4.376;2023-05-10T09:32:55;16.65;;;9.48;;
39188;SDS011;24915;50.858;4.376;2023-05-10T09:35:22;10.73;;;8.35;;
39188;SDS011;24915;50.858;4.376;2023-05-10T09:37:50;14.55;;;8.13;;
39188;SDS011;24915;50.858;4.376;2023-05-10T09:40:17;13.05;;;8.35;;
39188;SDS011;24915;50.858;4.376;2023-05-10T09:43:06;14.95;;;8.70;;
39188;SDS011;24915;50.858;4.376;2023-05-10T09:45:31;10.88;;;8.07;;
39188;SDS011;24915;50.858;4.376;2023-05-10T09:47:57;10.95;;;7.65;;
39188;SDS011;24915;50.858;4.376;2023-05-10T09:50:24;9.00;;;7.20;;
39188;SDS011;24915;50.858;4.376;2023-05-10T09:52:51;10.30;;;7.72;;
39188;SDS011;24915;50.858;4.376;2023-05-10T09:55:18;10.55;;;7.80;;
39188;SDS011;24915;50.858;4.376;2023-05-10T09:57:45;11.45;;;8.27;;
39188;SDS011;24915;50.858;4.376;2023-05-10T10:00:16;11.88;;;7.90;;
39188;SDS011;24915;50.858;4.376;2023-05-10T10:02:42;11.70;;;8.30;;
39188;SDS011;24915;50.858;4.376;2023-05-10T10:05:08;12.73;;;8.68;;
39188;SDS011;24915;50.858;4.376;2023-05-10T10:07:34;11.65;;;7.70;;
39188;SDS011;24915;50.858;4.376;2023-05-10T10:10:01;11.82;;;8.68;;
39188;SDS011;24915;50.858;4.376;2023-05-10T10:12:27;15.90;;;8.95;;
39188;SDS011;24915;50.858;4.376;2023-05-10T10:14:53;11.43;;;8.52;;
39188;SDS011;24915;50.858;4.376;2023-05-10T10:17:20;11.68;;;8.73;;
39188;SDS011;24915;50.858;4.376;2023-05-10T10:19:47;11.98;;;8.68;;
39188;SDS011;24915;50.858;4.376;2023-05-10T10:22:14;13.73;;;10.50;;
39188;SDS011;24915;50.858;4.376;2023-05-10T10:24:40;13.93;;;10.43;;
39188;SDS011;24915;50.858;4.376;2023-05-10T10:27:18;11.10;;;9.98;;
39188;SDS011;24915;50.858;4.376;2023-05-10T10:35:02;11.27;;;8.75;;
39188;SDS011;24915;50.858;4.376;2023-05-10T10:37:45;11.23;;;8.60;;
39188;SDS011;24915;50.858;4.376;2023-05-10T10:40:24;14.38;;;10.18;;
39188;SDS011;24915;50.858;4.376;2023-05-10T10:42:51;14.02;;;9.07;;
39188;SDS011;24915;50.858;4.376;2023-05-10T10:45:18;11.88;;;9.02;;
39188;SDS011;24915;50.858;4.376;2023-05-10T10:47:45;14.73;;;9.68;;
39188;SDS011;24915;50.858;4.376;2023-05-10T10:50:11;19.00;;;10.23;;
39188;SDS011;24915;50.858;4.376;2023-05-10T10:52:43;17.80;;;11.55;;
39188;SDS011;24915;50.858;4.376;2023-05-10T10:55:13;12.38;;;9.50;;
39188;SDS011;24915;50.858;4.376;2023-05-10T11:02:51;12.63;;;8.57;;
39188;SDS011;24915;50.858;4.376;2023-05-10T11:05:25;12.82;;;8.75;;
39188;SDS011;24915;50.858;4.376;2023-05-10T11:07:55;14.10;;;9.48;;
39188;SDS011;24915;50.858;4.376;2023-05-10T11:10:22;13.45;;;10.20;;
39188;SDS011;24915;50.858;4.376;2023-05-10T11:12:52;14.05;;;10.27;;
39188;SDS011;24915;50.858;4.376;2023-05-10T11:15:19;17.25;;;9.68;;
39188;SDS011;24915;50.858;4.376;2023-05-10T11:17:47;17.42;;;10.52;;
39188;SDS011;24915;50.858;4.376;2023-05-10T11:20:17;14.27;;;10.45;;
39188;SDS011;24915;50.858;4.376;2023-05-10T11:22:51;14.38;;;10.77;;
39188;SDS011;24915;50.858;4.376;2023-05-10T11:25:17;14.18;;;10.45;;
39188;SDS011;24915;50.858;4.376;2023-05-10T11:27:43;22.20;;;15.65;;
39188;SDS011;24915;50.858;4.376;2023-05-10T11:30:10;16.48;;;12.52;;
39188;SDS011;24915;50.858;4.376;2023-05-10T11:32:40;15.73;;;10.77;;
39188;SDS011;24915;50.858;4.376;2023-05-10T11:35:10;13.05;;;10.75;;
39188;SDS011;24915;50.858;4.376;2023-05-10T11:37:37;13.63;;;9.40;;
39188;SDS011;24915;50.858;4.376;2023-05-10T11:40:08;14.40;;;10.18;;
39188;SDS011;24915;50.858;4.376;2023-05-10T11:42:37;11.88;;;8.75;;
39188;SDS011;24915;50.858;4.376;2023-05-10T11:45:05;13.75;;;9.23;;
39188;SDS011;24915;50.858;4.376;2023-05-10T11:47:31;12.73;;;8.85;;
39188;SDS011;24915;50.858;4.376;2023-05-10T11:49:57;9.80;;;8.07;;
39188;SDS011;24915;50.858;4.376;2023-05-10T11:52:23;11.98;;;9.32;;
39188;SDS011;24915;50.858;4.376;2023-05-10T11:54:53;16.90;;;8.98;;
39188;SDS011;24915;50.858;4.376;2023-05-10T11:57:19;10.27;;;7.95;;
39188;SDS011;24915;50.858;4.376;2023-05-10T11:59:46;11.20;;;7.97;;
39188;SDS011;24915;50.858;4.376;2023-05-10T12:02:13;11.57;;;7.15;;
39188;SDS011;24915;50.858;4.376;2023-05-10T12:04:40;15.70;;;7.82;;
39188;SDS011;24915;50.858;4.376;2023-05-10T12:07:06;9.90;;;7.47;;
39188;SDS011;24915;50.858;4.376;2023-05-10T12:09:32;10.55;;;7.93;;
39188;SDS011;24915;50.858;4.376;2023-05-10T12:11:58;12.45;;;7.45;;
39188;SDS011;24915;50.858;4.376;2023-05-10T12:14:25;11.63;;;8.63;;
39188;SDS011;24915;50.858;4.376;2023-05-10T12:16:52;15.07;;;8.30;;
39188;SDS011;24915;50.858;4.376;2023-05-10T12:19:18;13.60;;;8.98;;
39188;SDS011;24915;50.858;4.376;2023-05-10T12:21:45;12.07;;;8.63;;
39188;SDS011;24915;50.858;4.376;2023-05-10T12:24:11;12.15;;;8.32;;
39188;SDS011;24915;50.858;4.376;2023-05-10T12:26:39;10.57;;;7.85;;
39188;SDS011;24915;50.858;4.376;2023-05-10T12:29:15;13.30;;;9.32;;
39188;SDS011;24915;50.858;4.376;2023-05-10T12:34:24;11.32;;;7.97;;
39188;SDS011;24915;50.858;4.376;2023-05-10T12:36:52;11.55;;;7.95;;
39188;SDS011;24915;50.858;4.376;2023-05-10T12:39:18;9.25;;;7.18;;
39188;SDS011;24915;50.858;4.376;2023-05-10T12:41:44;10.38;;;8.13;;
39188;SDS011;24915;50.858;4.376;2023-05-10T12:44:10;9.43;;;7.97;;
39188;SDS011;24915;50.858;4.376;2023-05-10T12:46:36;11.75;;;8.52;;
39188;SDS011;24915;50.858;4.376;2023-05-10T12:49:02;13.88;;;8.35;;
39188;SDS011;24915;50.858;4.376;2023-05-10T12:51:28;15.55;;;9.98;;
39188;SDS011;24915;50.858;4.376;2023-05-10T12:53:55;12.77;;;9.77;;
39188;SDS011;24915;50.858;4.376;2023-05-10T12:56:22;13.52;;;9.35;;
39188;SDS011;24915;50.858;4.376;2023-05-10T12:58:48;12.32;;;8.68;;
39188;SDS011;24915;50.858;4.376;2023-05-10T13:01:15;9.80;;;8.63;;
39188;SDS011;24915;50.858;4.376;2023-05-10T13:03:41;10.32;;;8.05;;
39188;SDS011;24915;50.858;4.376;2023-05-10T13:06:08;9.95;;;7.72;;
39188;SDS011;24915;50.858;4.376;2023-05-10T13:08:34;8.25;;;7.28;;
39188;SDS011;24915;50.858;4.376;2023-05-10T13:11:01;7.53;;;6.72;;
39188;SDS011;24915;50.858;4.376;2023-05-10T13:13:27;7.18;;;5.50;;
39188;SDS011;24915;50.858;4.376;2023-05-10T13:15:53;6.30;;;4.72;;
39188;SDS011;24915;50.858;4.376;2023-05-10T13:18:19;7.30;;;5.75;;
39188;SDS011;24915;50.858;4.376;2023-05-10T13:20:46;6.78;;;6.07;;
39188;SDS011;24915;50.858;4.376;2023-05-10T13:23:12;9.43;;;6.60;;
39188;SDS011;24915;50.858;4.376;2023-05-10T13:25:38;10.00;;;6.00;;
39188;SDS011;24915;50.858;4.376;2023-05-10T13:28:04;10.18;;;7.32;;
39188;SDS011;24915;50.858;4.376;2023-05-10T13:30:30;9.57;;;7.38;;
39188;SDS011;24915;50.858;4.376;2023-05-10T13:32:56;13.07;;;7.65;;
39188;SDS011;24915;50.858;4.376;2023-05-10T13:35:22;12.25;;;8.13;;
39188;SDS011;24915;50.858;4.376;2023-05-10T13:37:48;10.93;;;8.15;;
39188;SDS011;24915;50.858;4.376;2023-05-10T13:40:14;14.48;;;8.57;;
39188;SDS011;24915;50.858;4.376;2023-05-10T13:42:40;11.85;;;8.20;;
39188;SDS011;24915;50.858;4.376;2023-05-10T13:45:07;12.10;;;7.95;;
39188;SDS011;24915;50.858;4.376;2023-05-10T13:47:33;13.65;;;7.93;;
39188;SDS011;24915;50.858;4.376;2023-05-10T13:49:59;13.25;;;7.95;;
39188;SDS011;24915;50.858;4.376;2023-05-10T13:52:25;9.10;;;7.85;;
39188;SDS011;24915;50.858;4.376;2023-05-10T13:54:52;12.35;;;8.23;;
39188;SDS011;24915;50.858;4.376;2023-05-10T13:57:20;15.10;;;9.50;;
39188;SDS011;24915;50.858;4.376;2023-05-10T13:59:46;13.23;;;9.30;;
39188;SDS011;24915;50.858;4.376;2023-05-10T14:02:13;13.60;;;8.95;;
39188;SDS011;24915;50.858;4.376;2023-05-10T14:04:39;14.60;;;11.57;;
39188;SDS011;24915;50.858;4.376;2023-05-10T14:07:05;30.13;;;13.48;;
39188;SDS011;24915;50.858;4.376;2023-05-10T14:09:31;16.58;;;10.93;;
39188;SDS011;24915;50.858;4.376;2023-05-10T14:11:57;29.48;;;12.82;;
39188;SDS011;24915;50.858;4.376;2023-05-10T14:14:23;15.52;;;12.02;;
39188;SDS011;24915;50.858;4.376;2023-05-10T14:16:50;21.73;;;13.25;;
39188;SDS011;24915;50.858;4.376;2023-05-10T14:19:16;19.20;;;12.68;;
39188;SDS011;24915;50.858;4.376;2023-05-10T14:21:42;15.95;;;12.98;;
39188;SDS011;24915;50.858;4.376;2023-05-10T14:24:08;19.20;;;13.73;;
39188;SDS011;24915;50.858;4.376;2023-05-10T14:26:35;19.05;;;13.07;;
39188;SDS011;24915;50.858;4.376;2023-05-10T14:29:01;19.67;;;14.60;;
39188;SDS011;24915;50.858;4.376;2023-05-10T14:31:27;18.48;;;14.18;;
39188;SDS011;24915;50.858;4.376;2023-05-10T14:33:55;20.27;;;13.77;;
39188;SDS011;24915;50.858;4.376;2023-05-10T14:36:22;18.05;;;11.85;;
39188;SDS011;24915;50.858;4.376;2023-05-10T14:38:48;18.98;;;12.02;;
39188;SDS011;24915;50.858;4.376;2023-05-10T14:41:15;18.65;;;14.50;;
39188;SDS011;24915;50.858;4.376;2023-05-10T14:43:42;12.77;;;11.25;;
39188;SDS011;24915;50.858;4.376;2023-05-10T14:46:08;18.60;;;11.90;;
39188;SDS011;24915;50.858;4.376;2023-05-10T14:48:34;20.85;;;12.40;;
39188;SDS011;24915;50.858;4.376;2023-05-10T14:51:01;17.33;;;13.07;;
39188;SDS011;24915;50.858;4.376;2023-05-10T14:53:28;21.73;;;13.25;;
39188;SDS011;24915;50.858;4.376;2023-05-10T14:55:54;20.75;;;14.10;;